Time,TemperatureF,DewpointF,PressureIn,WindDirection,WindDirectionDegrees,WindSpeedMPH,WindSpeedGustMPH,Humidity,HourlyPrecipIn,Conditions,Clouds,dailyrainin,SoftwareType,DateUTC
2013-05-01 00:04:00,53.8,47.1,30.21,NE,45,1.6,1.6,78,0.00,,CLR,0.00,VWS V14.01,2013-05-01 04:04:00,
2013-05-01 00:09:00,54.9,49.8,30.21,South,180,1.6,2.7,83,0.00,,CLR,0.00,VWS V14.01,2013-05-01 04:09:00,
2013-05-01 00:14:00,54.3,49.0,30.21,NNE,22,0.0,0.9,82,0.00,,CLR,0.00,VWS V14.01,2013-05-01 04:14:00,
2013-05-01 00:19:00,54.0,48.6,30.21,NE,45,0.0,1.3,82,0.00,,CLR,0.00,VWS V14.01,2013-05-01 04:19:00,
2013-05-01 00:24:00,53.2,47.6,30.21,ENE,68,0.0,1.1,81,0.00,,CLR,0.00,VWS V14.01,2013-05-01 04:24:00,
2013-05-01 00:29:00,52.9,47.5,30.21,NE,45,0.0,0.0,82,0.00,,CLR,0.00,VWS V14.01,2013-05-01 04:29:00,
2013-05-01 00:34:00,53.2,47.9,30.21,East,90,0.0,1.6,82,0.00,,CLR,0.00,VWS V14.01,2013-05-01 04:34:00,
2013-05-01 00:39:00,52.5,47.2,30.21,East,90,1.1,1.1,82,0.00,,CLR,0.00,VWS V14.01,2013-05-01 04:39:00,
2013-05-01 00:43:00,52.3,47.3,30.21,ENE,68,0.0,0.0,83,0.00,,CLR,0.00,VWS V14.01,2013-05-01 04:43:00,
2013-05-01 00:48:00,52.0,47.0,30.21,East,90,0.0,0.0,83,0.00,,CLR,0.00,VWS V14.01,2013-05-01 04:48:00,
2013-05-01 00:53:00,51.4,46.8,30.21,SW,225,0.0,0.0,84,0.00,,CLR,0.00,VWS V14.01,2013-05-01 04:53:00,
2013-05-01 00:58:00,51.3,46.6,30.21,SSW,202,0.0,0.0,84,0.00,,CLR,0.00,VWS V14.01,2013-05-01 04:58:00,
2013-05-01 01:03:00,51.3,46.9,30.21,WNW,292,0.0,0.0,85,0.00,,CLR,0.00,VWS V14.01,2013-05-01 05:03:00,
2013-05-01 01:08:00,50.7,46.4,30.21,WNW,292,0.0,0.0,85,0.00,,CLR,0.00,VWS V14.01,2013-05-01 05:08:00,
2013-05-01 01:13:00,51.1,46.7,30.21,West,270,0.0,0.0,85,0.00,,CLR,0.00,VWS V14.01,2013-05-01 05:13:00,
2013-05-01 01:18:00,50.7,46.4,30.21,West,270,0.0,0.0,85,0.00,,CLR,0.00,VWS V14.01,2013-05-01 05:18:00,
2013-05-01 01:23:00,50.7,46.4,30.21,SW,225,0.0,0.0,85,0.00,,CLR,0.00,VWS V14.01,2013-05-01 05:23:00,
2013-05-01 01:28:00,50.7,46.4,30.21,SW,225,0.0,0.0,85,0.00,,CLR,0.00,VWS V14.01,2013-05-01 05:28:00,
2013-05-01 01:33:00,50.2,46.2,30.21,WNW,292,0.0,0.0,86,0.00,,CLR,0.00,VWS V14.01,2013-05-01 05:33:00,
2013-05-01 01:38:00,50.2,46.2,30.21,West,270,0.0,0.0,86,0.00,,CLR,0.00,VWS V14.01,2013-05-01 05:38:00,
2013-05-01 01:43:00,50.0,46.3,30.21,NW,315,0.0,0.0,87,0.00,,CLR,0.00,VWS V14.01,2013-05-01 05:43:00,
2013-05-01 01:48:00,49.8,46.4,30.21,NW,315,0.0,0.0,88,0.00,,CLR,0.00,VWS V14.01,2013-05-01 05:48:00,
2013-05-01 01:53:00,49.5,46.1,30.21,North,0,0.0,0.0,88,0.00,,CLR,0.00,VWS V14.01,2013-05-01 05:53:00,
2013-05-01 01:58:00,49.6,46.2,30.21,WNW,292,0.0,0.0,88,0.00,,CLR,0.00,VWS V14.01,2013-05-01 05:58:00,
2013-05-01 02:03:00,49.5,46.1,30.21,West,270,0.0,0.0,88,0.00,,CLR,0.00,VWS V14.01,2013-05-01 06:03:00,
2013-05-01 02:08:00,49.5,46.1,30.21,WNW,292,0.0,0.0,88,0.00,,CLR,0.00,VWS V14.01,2013-05-01 06:08:00,
2013-05-01 02:13:00,49.5,46.4,30.21,West,270,0.0,0.0,89,0.00,,CLR,0.00,VWS V14.01,2013-05-01 06:13:00,
2013-05-01 02:18:00,49.1,46.3,30.21,NNW,338,0.0,0.0,90,0.00,,CLR,0.00,VWS V14.01,2013-05-01 06:18:00,
2013-05-01 02:23:00,48.9,46.1,30.21,NE,45,0.0,0.0,90,0.00,,CLR,0.00,VWS V14.01,2013-05-01 06:23:00,
2013-05-01 02:28:00,49.3,46.5,30.21,East,90,0.0,0.0,90,0.00,,CLR,0.00,VWS V14.01,2013-05-01 06:28:00,
2013-05-01 02:33:00,49.1,46.3,30.21,NNE,22,0.0,0.0,90,0.00,,CLR,0.00,VWS V14.01,2013-05-01 06:33:00,
2013-05-01 02:38:00,48.7,45.9,30.21,North,0,0.0,0.0,90,0.00,,CLR,0.00,VWS V14.01,2013-05-01 06:38:00,
2013-05-01 02:43:00,48.7,46.2,30.21,North,0,0.0,0.0,91,0.00,,CLR,0.00,VWS V14.01,2013-05-01 06:43:00,
2013-05-01 02:48:00,48.6,46.1,30.21,NNW,338,0.0,0.0,91,0.00,,CLR,0.00,VWS V14.01,2013-05-01 06:48:00,
2013-05-01 02:53:00,48.4,45.9,30.21,NNW,338,0.0,0.0,91,0.00,,CLR,0.00,VWS V14.01,2013-05-01 06:53:00,
2013-05-01 02:58:00,48.7,46.5,30.21,SSW,202,0.0,0.0,92,0.00,,CLR,0.00,VWS V14.01,2013-05-01 06:58:00,
2013-05-01 03:03:00,48.4,45.9,30.21,SW,225,0.0,0.0,91,0.00,,CLR,0.00,VWS V14.01,2013-05-01 07:03:00,
2013-05-01 03:08:00,48.2,46.0,30.21,SW,225,0.0,0.0,92,0.00,,CLR,0.00,VWS V14.01,2013-05-01 07:08:00,
2013-05-01 03:13:00,47.7,45.5,30.21,SW,225,0.0,0.0,92,0.00,,CLR,0.00,VWS V14.01,2013-05-01 07:13:00,
2013-05-01 03:18:00,47.3,45.1,30.21,SW,225,0.0,0.0,92,0.00,,CLR,0.00,VWS V14.01,2013-05-01 07:18:00,
2013-05-01 03:23:00,47.3,45.1,30.21,SW,225,0.0,0.0,92,0.00,,CLR,0.00,VWS V14.01,2013-05-01 07:23:00,
2013-05-01 03:28:00,47.3,45.4,30.21,SW,225,0.0,0.0,93,0.00,,CLR,0.00,VWS V14.01,2013-05-01 07:28:00,
2013-05-01 03:33:00,47.5,45.6,30.21,SW,225,0.0,0.0,93,0.00,,CLR,0.00,VWS V14.01,2013-05-01 07:33:00,
2013-05-01 03:38:00,47.3,45.4,30.21,SW,225,0.0,0.0,93,0.00,,CLR,0.00,VWS V14.01,2013-05-01 07:38:00,
2013-05-01 03:43:00,47.1,45.2,30.21,NW,315,0.0,0.0,93,0.00,,CLR,0.00,VWS V14.01,2013-05-01 07:43:00,
2013-05-01 03:48:00,47.1,45.2,30.21,NW,315,0.0,0.0,93,0.00,,CLR,0.00,VWS V14.01,2013-05-01 07:48:00,
2013-05-01 03:53:00,47.1,45.2,30.21,West,270,0.0,0.0,93,0.00,,CLR,0.00,VWS V14.01,2013-05-01 07:53:00,
2013-05-01 03:58:00,46.8,44.8,30.21,WSW,248,0.0,0.0,93,0.00,,CLR,0.00,VWS V14.01,2013-05-01 07:58:00,
2013-05-01 04:03:00,46.6,44.7,30.24,SSW,202,0.0,0.0,93,0.00,,CLR,0.00,VWS V14.01,2013-05-01 08:03:00,
2013-05-01 04:08:00,46.2,44.3,30.24,SSW,202,0.0,0.0,93,0.00,,CLR,0.00,VWS V14.01,2013-05-01 08:08:00,
2013-05-01 04:13:00,46.2,44.3,30.24,SSW,202,0.0,0.0,93,0.00,,CLR,0.00,VWS V14.01,2013-05-01 08:13:00,
2013-05-01 04:18:00,46.0,44.1,30.24,SSW,202,0.0,0.0,93,0.00,,CLR,0.00,VWS V14.01,2013-05-01 08:18:00,
2013-05-01 04:23:00,45.9,44.0,30.24,SSW,202,0.0,0.0,93,0.00,,CLR,0.00,VWS V14.01,2013-05-01 08:23:00,
2013-05-01 04:28:00,46.0,44.4,30.24,SSW,202,0.0,0.0,94,0.00,,CLR,0.00,VWS V14.01,2013-05-01 08:28:00,
2013-05-01 04:33:00,45.9,44.2,30.21,SSW,202,0.0,0.0,94,0.00,,CLR,0.00,VWS V14.01,2013-05-01 08:33:00,
2013-05-01 04:38:00,45.7,44.1,30.21,SSW,202,0.0,0.0,94,0.00,,CLR,0.00,VWS V14.01,2013-05-01 08:38:00,
2013-05-01 04:43:00,45.9,44.2,30.21,SSW,202,0.0,0.0,94,0.00,,CLR,0.00,VWS V14.01,2013-05-01 08:43:00,
2013-05-01 04:48:00,45.9,44.5,30.24,SSW,202,0.0,0.0,95,0.00,,CLR,0.00,VWS V14.01,2013-05-01 08:48:00,
2013-05-01 04:53:00,46.4,44.8,30.24,SSW,202,0.0,0.0,94,0.00,,CLR,0.00,VWS V14.01,2013-05-01 08:53:00,
2013-05-01 04:58:00,46.2,44.9,30.24,SSW,202,0.0,0.0,95,0.00,,CLR,0.00,VWS V14.01,2013-05-01 08:58:00,
2013-05-01 05:03:00,46.4,45.0,30.24,SSW,202,0.0,0.0,95,0.00,,BKN017,0.00,VWS V14.01,2013-05-01 09:03:00,
2013-05-01 05:08:00,46.4,45.0,30.24,SSW,202,0.0,0.0,95,0.00,,BKN017,0.00,VWS V14.01,2013-05-01 09:08:00,
2013-05-01 05:13:00,46.8,45.4,30.24,SSW,202,0.0,0.0,95,0.00,,BKN017,0.00,VWS V14.01,2013-05-01 09:13:00,
2013-05-01 05:18:00,47.1,45.8,30.24,SSW,202,0.0,0.0,95,0.00,,BKN017,0.00,VWS V14.01,2013-05-01 09:18:00,
2013-05-01 05:23:00,47.3,46.2,30.24,SSW,202,0.0,0.0,96,0.00,,BKN017,0.00,VWS V14.01,2013-05-01 09:23:00,
2013-05-01 05:28:00,47.3,46.2,30.24,SSW,202,0.0,0.0,96,0.00,,BKN017,0.00,VWS V14.01,2013-05-01 09:28:00,
2013-05-01 05:33:00,47.7,46.6,30.24,East,90,0.0,0.0,96,0.00,,BKN017,0.00,VWS V14.01,2013-05-01 09:33:00,
2013-05-01 05:38:00,47.8,46.8,30.24,ESE,112,0.0,0.0,96,0.00,,BKN017,0.00,VWS V14.01,2013-05-01 09:38:00,
2013-05-01 05:43:00,48.0,46.9,30.24,East,90,0.0,0.0,96,0.00,,BKN017,0.00,VWS V14.01,2013-05-01 09:43:00,
2013-05-01 05:48:00,48.0,47.2,30.24,East,90,0.0,0.0,97,0.00,,BKN017,0.00,VWS V14.01,2013-05-01 09:48:00,
2013-05-01 05:53:00,48.4,47.3,30.24,East,90,0.0,1.3,96,0.00,,BKN017,0.00,VWS V14.01,2013-05-01 09:53:00,
2013-05-01 05:58:00,48.6,47.5,30.24,NNW,338,0.0,0.0,96,0.00,,BKN017,0.00,VWS V14.01,2013-05-01 09:58:00,
2013-05-01 06:03:00,48.6,47.5,30.24,NNW,338,0.0,0.0,96,0.00,,OVC017,0.00,VWS V14.01,2013-05-01 10:03:00,
2013-05-01 06:08:00,48.7,47.7,30.24,NW,315,0.0,0.0,96,0.00,,OVC017,0.00,VWS V14.01,2013-05-01 10:08:00,
2013-05-01 06:13:00,48.7,47.7,30.24,NW,315,0.0,0.0,96,0.00,,OVC017,0.00,VWS V14.01,2013-05-01 10:13:00,
2013-05-01 06:18:00,48.9,47.8,30.27,NW,315,0.0,0.0,96,0.00,,OVC017,0.00,VWS V14.01,2013-05-01 10:18:00,
2013-05-01 06:23:00,48.9,47.8,30.27,NW,315,0.0,0.0,96,0.00,,OVC017,0.00,VWS V14.01,2013-05-01 10:23:00,
2013-05-01 06:28:00,49.1,48.0,30.27,NW,315,0.0,0.0,96,0.00,,OVC017,0.00,VWS V14.01,2013-05-01 10:28:00,
2013-05-01 06:33:00,49.3,48.2,30.27,NW,315,0.0,0.0,96,0.00,,OVC017,0.00,VWS V14.01,2013-05-01 10:33:00,
2013-05-01 06:38:00,49.3,48.2,30.27,NW,315,0.0,0.0,96,0.00,,OVC017,0.00,VWS V14.01,2013-05-01 10:38:00,
2013-05-01 06:43:00,49.3,48.2,30.27,NW,315,0.0,0.0,96,0.00,,OVC017,0.00,VWS V14.01,2013-05-01 10:43:00,
2013-05-01 06:48:00,49.5,48.4,30.27,North,0,0.0,0.0,96,0.00,,OVC017,0.00,VWS V14.01,2013-05-01 10:48:00,
2013-05-01 06:53:00,49.6,48.5,30.27,West,270,0.9,1.1,96,0.00,,OVC017,0.00,VWS V14.01,2013-05-01 10:53:00,
2013-05-01 06:58:00,49.8,48.7,30.27,West,270,0.0,0.0,96,0.00,,OVC017,0.00,VWS V14.01,2013-05-01 10:58:00,
2013-05-01 07:03:00,50.2,49.1,30.27,NE,45,0.0,1.1,96,0.00,,OVC017,0.00,VWS V14.01,2013-05-01 11:03:00,
2013-05-01 07:08:00,50.4,49.5,30.27,North,0,0.0,0.0,97,0.00,,OVC017,0.00,VWS V14.01,2013-05-01 11:08:00,
2013-05-01 07:13:00,50.7,49.9,30.27,South,180,2.2,2.2,97,0.00,,OVC017,0.00,VWS V14.01,2013-05-01 11:13:00,
2013-05-01 07:23:00,51.6,51.1,30.27,East,90,1.1,1.6,98,0.00,,OVC017,0.00,VWS V14.01,2013-05-01 11:23:00,
2013-05-01 07:28:00,52.5,52.0,30.27,NNW,338,1.1,3.6,98,0.00,,OVC017,0.00,VWS V14.01,2013-05-01 11:28:00,
2013-05-01 07:33:00,53.1,52.5,30.30,SSE,158,2.0,3.1,98,0.00,,OVC017,0.00,VWS V14.01,2013-05-01 11:33:00,
2013-05-01 07:38:00,54.1,53.6,30.30,NNW,338,4.0,4.0,98,0.00,,OVC017,0.00,VWS V14.01,2013-05-01 11:38:00,
2013-05-01 07:43:00,54.5,54.0,30.30,SSW,202,2.9,3.4,98,0.00,,OVC017,0.00,VWS V14.01,2013-05-01 11:43:00,
2013-05-01 07:48:00,55.0,54.5,30.30,NW,315,3.4,3.4,98,0.00,,OVC017,0.00,VWS V14.01,2013-05-01 11:48:00,
2013-05-01 07:53:00,55.8,53.5,30.30,SSW,202,3.6,4.0,92,0.00,,OVC017,0.00,VWS V14.01,2013-05-01 11:53:00,
2013-05-01 07:58:00,56.5,51.1,30.30,SSW,202,2.0,2.7,82,0.00,,OVC017,0.00,VWS V14.01,2013-05-01 11:58:00,
2013-05-01 08:03:00,56.8,50.1,30.30,South,180,3.4,6.5,78,0.00,,OVC015,0.00,VWS V14.01,2013-05-01 12:03:00,
2013-05-01 08:08:00,57.4,49.9,30.30,South,180,5.4,5.4,76,0.00,,OVC015,0.00,VWS V14.01,2013-05-01 12:08:00,
2013-05-01 08:13:00,57.7,49.2,30.30,SSW,202,4.9,8.1,73,0.00,,OVC015,0.00,VWS V14.01,2013-05-01 12:13:00,
2013-05-01 08:18:00,58.3,49.7,30.33,SW,225,3.1,3.1,73,0.00,,OVC015,0.00,VWS V14.01,2013-05-01 12:18:00,
2013-05-01 08:23:00,58.5,48.7,30.33,ENE,68,3.4,7.4,70,0.00,,OVC015,0.00,VWS V14.01,2013-05-01 12:23:00,
2013-05-01 08:28:00,59.2,48.6,30.33,South,180,4.0,4.3,68,0.00,,OVC015,0.00,VWS V14.01,2013-05-01 12:28:00,
2013-05-01 08:33:00,59.5,49.4,30.36,SE,135,4.9,6.5,69,0.00,,OVC015,0.00,VWS V14.01,2013-05-01 12:33:00,
2013-05-01 08:38:00,59.5,47.8,30.36,SSW,202,2.7,5.4,65,0.00,,OVC015,0.00,VWS V14.01,2013-05-01 12:38:00,
2013-05-01 08:43:00,59.9,48.1,30.36,SW,225,3.8,4.3,65,0.00,,OVC015,0.00,VWS V14.01,2013-05-01 12:43:00,
2013-05-01 08:48:00,60.6,48.4,30.33,SE,135,7.6,7.6,64,0.00,,OVC015,0.00,VWS V14.01,2013-05-01 12:48:00,
2013-05-01 08:53:00,60.4,47.8,30.33,West,270,2.9,3.8,63,0.00,,OVC015,0.00,VWS V14.01,2013-05-01 12:53:00,
2013-05-01 08:58:00,60.6,48.4,30.33,West,270,2.2,6.0,64,0.00,,OVC015,0.00,VWS V14.01,2013-05-01 12:58:00,
2013-05-01 09:03:00,61.0,47.9,30.33,SSE,158,2.0,6.0,62,0.00,,OVC015,0.00,VWS V14.01,2013-05-01 13:03:00,
2013-05-01 09:08:00,61.0,47.9,30.33,West,270,2.0,2.9,62,0.00,,OVC015,0.00,VWS V14.01,2013-05-01 13:08:00,
2013-05-01 09:13:00,61.3,48.2,30.33,SSW,202,5.6,5.6,62,0.00,,OVC015,0.00,VWS V14.01,2013-05-01 13:13:00,
2013-05-01 09:18:00,62.6,48.5,30.33,South,180,2.9,4.3,60,0.00,,OVC015,0.00,VWS V14.01,2013-05-01 13:18:00,
2013-05-01 09:23:00,63.0,48.0,30.33,SSW,202,2.2,2.2,58,0.00,,OVC015,0.00,VWS V14.01,2013-05-01 13:23:00,
2013-05-01 09:28:00,63.5,48.0,30.33,NNE,22,1.6,5.8,57,0.00,,OVC015,0.00,VWS V14.01,2013-05-01 13:28:00,
2013-05-01 09:33:00,64.0,47.6,30.33,SW,225,1.3,6.3,55,0.00,,OVC017,0.00,VWS V14.01,2013-05-01 13:33:00,
2013-05-01 09:38:00,64.4,47.9,30.33,SW,225,3.8,4.3,55,0.00,,OVC017,0.00,VWS V14.01,2013-05-01 13:38:00,
2013-05-01 09:43:00,64.4,47.9,30.33,ESE,112,3.6,4.0,55,0.00,,OVC017,0.00,VWS V14.01,2013-05-01 13:43:00,
2013-05-01 09:48:00,68.0,47.6,30.33,West,270,3.8,4.7,48,0.00,,OVC017,0.00,VWS V14.01,2013-05-01 13:48:00,
2013-05-01 09:53:00,69.3,47.6,30.33,SW,225,1.6,7.4,46,0.00,,OVC017,0.00,VWS V14.01,2013-05-01 13:53:00,
2013-05-01 09:58:00,69.3,47.6,30.33,East,90,2.7,2.9,46,0.00,,OVC017,0.00,VWS V14.01,2013-05-01 13:58:00,
2013-05-01 10:03:00,69.4,47.2,30.30,West,270,1.6,3.1,45,0.00,,OVC019,0.00,VWS V14.01,2013-05-01 14:03:00,
2013-05-01 10:08:00,70.0,47.7,30.30,SW,225,2.7,2.7,45,0.00,,OVC019,0.00,VWS V14.01,2013-05-01 14:08:00,
2013-05-01 10:13:00,69.6,46.8,30.30,South,180,4.9,7.6,44,0.00,,OVC019,0.00,VWS V14.01,2013-05-01 14:13:00,
2013-05-01 10:18:00,70.2,47.2,30.30,WSW,248,3.4,3.4,44,0.00,,OVC019,0.00,VWS V14.01,2013-05-01 14:18:00,
2013-05-01 10:23:00,70.5,47.6,30.30,South,180,4.3,5.8,44,0.00,,OVC019,0.00,VWS V14.01,2013-05-01 14:23:00,
2013-05-01 10:28:00,69.6,47.4,30.30,SSE,158,4.9,5.6,45,0.00,,OVC019,0.00,VWS V14.01,2013-05-01 14:28:00,
2013-05-01 10:33:00,69.8,47.5,30.33,NNE,22,3.1,3.8,45,0.00,,OVC019,0.00,VWS V14.01,2013-05-01 14:33:00,
2013-05-01 10:38:00,69.8,47.5,30.33,SSW,202,3.4,5.8,45,0.00,,OVC019,0.00,VWS V14.01,2013-05-01 14:38:00,
2013-05-01 10:43:00,71.8,46.8,30.33,South,180,4.9,8.1,41,0.00,,OVC019,0.00,VWS V14.01,2013-05-01 14:43:00,
2013-05-01 10:48:00,73.4,48.9,30.33,South,180,1.3,2.9,42,0.00,,OVC019,0.00,VWS V14.01,2013-05-01 14:48:00,
2013-05-01 10:53:00,72.9,46.5,30.33,SSE,158,4.3,4.3,39,0.00,,OVC019,0.00,VWS V14.01,2013-05-01 14:53:00,
2013-05-01 10:58:00,75.0,47.7,30.33,NW,315,2.0,4.0,38,0.00,,OVC019,0.00,VWS V14.01,2013-05-01 14:58:00,
2013-05-01 11:03:00,74.8,46.8,30.33,NNE,22,2.0,4.3,37,0.00,,BKN019,0.00,VWS V14.01,2013-05-01 15:03:00,
2013-05-01 11:08:00,76.8,47.1,30.33,South,180,2.7,4.0,35,0.00,,BKN019,0.00,VWS V14.01,2013-05-01 15:08:00,
2013-05-01 11:13:00,75.6,46.0,30.33,ENE,68,3.1,3.1,35,0.00,,BKN019,0.00,VWS V14.01,2013-05-01 15:13:00,
2013-05-01 11:18:00,76.6,46.2,30.33,SW,225,7.8,7.8,34,0.00,,BKN019,0.00,VWS V14.01,2013-05-01 15:18:00,
2013-05-01 11:23:00,76.3,45.9,30.33,WNW,292,3.4,3.4,34,0.00,,BKN019,0.00,VWS V14.01,2013-05-01 15:23:00,
2013-05-01 11:28:00,78.3,46.8,30.33,East,90,2.7,2.7,33,0.00,,BKN019,0.00,VWS V14.01,2013-05-01 15:28:00,
2013-05-01 11:33:00,80.1,48.4,30.33,NW,315,2.7,2.7,33,0.00,,BKN019,0.00,VWS V14.01,2013-05-01 15:33:00,
2013-05-01 11:38:00,82.0,50.1,30.33,NNE,22,2.5,2.5,33,0.00,,BKN019,0.00,VWS V14.01,2013-05-01 15:38:00,
2013-05-01 11:43:00,80.8,47.4,30.33,SSW,202,4.7,5.8,31,0.00,,BKN019,0.00,VWS V14.01,2013-05-01 15:43:00,
2013-05-01 11:48:00,76.5,44.4,30.33,NNW,338,1.3,2.5,32,0.00,,BKN019,0.00,VWS V14.01,2013-05-01 15:48:00,
2013-05-01 11:53:00,77.2,45.9,30.33,NW,315,2.9,4.3,33,0.00,,BKN019,0.00,VWS V14.01,2013-05-01 15:53:00,
2013-05-01 11:58:00,80.4,47.9,30.33,North,0,1.3,4.0,32,0.00,,BKN019,0.00,VWS V14.01,2013-05-01 15:58:00,
2013-05-01 12:03:00,79.5,46.3,30.30,NNW,338,4.3,4.3,31,0.00,,OVC023,0.00,VWS V14.01,2013-05-01 16:03:00,
2013-05-01 12:08:00,80.8,47.4,30.30,NE,45,2.5,2.5,31,0.00,,OVC023,0.00,VWS V14.01,2013-05-01 16:08:00,
2013-05-01 12:13:00,78.8,46.5,30.30,SE,135,4.0,4.3,32,0.00,,OVC023,0.00,VWS V14.01,2013-05-01 16:13:00,
2013-05-01 12:18:00,80.8,47.4,30.33,West,270,2.9,3.8,31,0.00,,OVC023,0.00,VWS V14.01,2013-05-01 16:18:00,
2013-05-01 12:23:00,79.3,46.1,30.33,South,180,3.6,3.6,31,0.00,,OVC023,0.00,VWS V14.01,2013-05-01 16:23:00,
2013-05-01 12:28:00,79.2,46.8,30.33,ENE,68,3.1,11.0,32,0.00,,OVC023,0.00,VWS V14.01,2013-05-01 16:28:00,
2013-05-01 12:33:00,77.9,45.7,30.30,SSE,158,5.4,5.4,32,0.00,,OVC023,0.00,VWS V14.01,2013-05-01 16:33:00,
2013-05-01 12:38:00,78.4,47.0,30.30,NW,315,7.2,7.2,33,0.00,,OVC023,0.00,VWS V14.01,2013-05-01 16:38:00,
2013-05-01 12:43:00,78.1,45.8,30.30,WNW,292,3.1,3.1,32,0.00,,OVC023,0.00,VWS V14.01,2013-05-01 16:43:00,
2013-05-01 12:48:00,80.1,47.6,30.30,SSW,202,3.6,7.4,32,0.00,,OVC023,0.00,VWS V14.01,2013-05-01 16:48:00,
2013-05-01 12:53:00,82.4,49.6,30.30,West,270,3.1,5.4,32,0.00,,OVC023,0.00,VWS V14.01,2013-05-01 16:53:00,
2013-05-01 12:58:00,81.3,47.8,30.30,SW,225,6.9,6.9,31,0.00,,OVC023,0.00,VWS V14.01,2013-05-01 16:58:00,
2013-05-01 13:03:00,78.8,45.6,30.30,SSW,202,8.7,8.7,31,0.00,,BKN029,0.00,VWS V14.01,2013-05-01 17:03:00,
2013-05-01 13:08:00,78.6,46.3,30.30,SSW,202,4.0,7.4,32,0.00,,BKN029,0.00,VWS V14.01,2013-05-01 17:08:00,
2013-05-01 13:13:00,79.9,46.6,30.30,SW,225,3.8,6.0,31,0.00,,BKN029,0.00,VWS V14.01,2013-05-01 17:13:00,
2013-05-01 13:18:00,78.6,46.3,30.30,South,180,4.3,4.3,32,0.00,,BKN029,0.00,VWS V14.01,2013-05-01 17:18:00,
2013-05-01 13:23:00,77.0,45.7,30.30,West,270,7.6,7.6,33,0.00,,BKN029,0.00,VWS V14.01,2013-05-01 17:23:00,
2013-05-01 13:28:00,77.2,45.1,30.30,South,180,6.9,6.9,32,0.00,,BKN029,0.00,VWS V14.01,2013-05-01 17:28:00,
2013-05-01 13:33:00,81.9,47.4,30.30,South,180,2.7,2.7,30,0.00,,BKN031,0.00,VWS V14.01,2013-05-01 17:33:00,
2013-05-01 13:38:00,84.0,48.4,30.30,WSW,248,3.4,3.6,29,0.00,,BKN031,0.00,VWS V14.01,2013-05-01 17:38:00,
2013-05-01 13:43:00,81.5,46.2,30.30,SSW,202,4.9,8.1,29,0.00,,BKN031,0.00,VWS V14.01,2013-05-01 17:43:00,
2013-05-01 13:48:00,82.8,47.3,30.30,West,270,0.9,2.5,29,0.00,,BKN031,0.00,VWS V14.01,2013-05-01 17:48:00,
2013-05-01 13:53:00,79.3,45.2,30.30,North,0,4.3,8.7,30,0.00,,BKN031,0.00,VWS V14.01,2013-05-01 17:53:00,
2013-05-01 13:58:00,81.0,46.6,30.30,SW,225,3.4,4.0,30,0.00,,BKN031,0.00,VWS V14.01,2013-05-01 17:58:00,
2013-05-01 14:03:00,79.9,45.7,30.30,SSW,202,1.1,3.8,30,0.00,,SCT035,0.00,VWS V14.01,2013-05-01 18:03:00,
2013-05-01 14:08:00,81.3,47.0,30.30,South,180,5.8,7.2,30,0.00,,SCT035,0.00,VWS V14.01,2013-05-01 18:08:00,
2013-05-01 14:13:00,79.9,45.7,30.30,NNW,338,3.6,3.6,30,0.00,,SCT035,0.00,VWS V14.01,2013-05-01 18:13:00,
2013-05-01 14:18:00,77.4,44.4,30.27,NNE,22,3.8,7.4,31,0.00,,SCT035,0.00,VWS V14.01,2013-05-01 18:18:00,
2013-05-01 14:23:00,78.8,45.6,30.27,SSE,158,1.6,2.9,31,0.00,,SCT035,0.00,VWS V14.01,2013-05-01 18:23:00,
2013-05-01 14:28:00,78.1,45.0,30.27,East,90,4.9,5.4,31,0.00,,SCT035,0.00,VWS V14.01,2013-05-01 18:28:00,
2013-05-01 14:33:00,77.4,45.2,30.27,South,180,8.5,8.5,32,0.00,,SCT035,0.00,VWS V14.01,2013-05-01 18:33:00,
2013-05-01 14:38:00,79.2,45.1,30.27,South,180,2.0,4.7,30,0.00,,SCT035,0.00,VWS V14.01,2013-05-01 18:38:00,
2013-05-01 14:43:00,78.6,44.6,30.27,South,180,5.6,8.5,30,0.00,,SCT035,0.00,VWS V14.01,2013-05-01 18:43:00,
2013-05-01 14:48:00,79.5,46.3,30.27,South,180,2.0,4.7,31,0.00,,SCT035,0.00,VWS V14.01,2013-05-01 18:48:00,
2013-05-01 14:53:00,80.2,46.0,30.27,SSW,202,3.1,5.8,30,0.00,,SCT035,0.00,VWS V14.01,2013-05-01 18:53:00,
2013-05-01 14:58:00,75.9,43.1,30.27,South,180,2.5,2.5,31,0.00,,SCT035,0.00,VWS V14.01,2013-05-01 18:58:00,
2013-05-01 15:03:00,79.3,46.1,30.27,West,270,1.6,2.7,31,0.00,,OVC046,0.00,VWS V14.01,2013-05-01 19:03:00,
2013-05-01 15:08:00,76.1,44.1,30.27,East,90,3.6,4.3,32,0.00,,OVC046,0.00,VWS V14.01,2013-05-01 19:08:00,
2013-05-01 15:13:00,76.6,44.6,30.27,SSE,158,3.4,4.7,32,0.00,,OVC046,0.00,VWS V14.01,2013-05-01 19:13:00,
2013-05-01 15:18:00,78.6,45.5,30.27,NNE,22,3.4,8.1,31,0.00,,OVC046,0.00,VWS V14.01,2013-05-01 19:18:00,
2013-05-01 15:23:00,77.9,44.9,30.27,ESE,112,4.3,4.3,31,0.00,,OVC046,0.00,VWS V14.01,2013-05-01 19:23:00,
2013-05-01 15:28:00,77.2,44.2,30.27,South,180,7.2,8.5,31,0.00,,OVC046,0.00,VWS V14.01,2013-05-01 19:28:00,
2013-05-01 15:33:00,77.5,44.5,30.27,East,90,7.8,7.8,31,0.00,,OVC046,0.00,VWS V14.01,2013-05-01 19:33:00,
2013-05-01 15:38:00,78.3,45.2,30.27,South,180,3.4,3.4,31,0.00,,OVC046,0.00,VWS V14.01,2013-05-01 19:38:00,
2013-05-01 15:42:00,78.1,45.0,30.27,South,180,4.9,8.7,31,0.00,,OVC046,0.00,VWS V14.01,2013-05-01 19:42:00,
2013-05-01 15:47:00,80.1,46.7,30.27,South,180,3.4,3.8,31,0.00,,OVC046,0.00,VWS V14.01,2013-05-01 19:47:00,
2013-05-01 15:52:00,75.6,43.7,30.27,South,180,2.0,2.9,32,0.00,,OVC046,0.00,VWS V14.01,2013-05-01 19:52:00,
2013-05-01 15:57:00,77.7,45.5,30.27,SSE,158,6.0,6.0,32,0.00,,OVC046,0.00,VWS V14.01,2013-05-01 19:57:00,
2013-05-01 16:02:00,78.3,46.8,30.27,South,180,2.9,4.0,33,0.00,,BKN042,0.00,VWS V14.01,2013-05-01 20:02:00,
2013-05-01 16:07:00,79.3,46.1,30.27,SW,225,3.6,7.8,31,0.00,,BKN042,0.00,VWS V14.01,2013-05-01 20:07:00,
2013-05-01 16:12:00,79.0,45.8,30.27,SW,225,1.1,3.1,31,0.00,,BKN042,0.00,VWS V14.01,2013-05-01 20:12:00,
2013-05-01 16:17:00,79.0,45.8,30.27,South,180,5.8,5.8,31,0.00,,BKN042,0.00,VWS V14.01,2013-05-01 20:17:00,
2013-05-01 16:22:00,78.1,45.0,30.27,SSE,158,4.7,6.3,31,0.00,,BKN042,0.00,VWS V14.01,2013-05-01 20:22:00,
2013-05-01 16:27:00,78.4,45.3,30.27,SSW,202,5.8,8.5,31,0.00,,BKN042,0.00,VWS V14.01,2013-05-01 20:27:00,
2013-05-01 16:32:00,79.9,45.7,30.27,ENE,68,4.0,4.0,30,0.00,,BKN042,0.00,VWS V14.01,2013-05-01 20:32:00,
2013-05-01 16:37:00,78.4,44.5,30.27,South,180,3.6,3.6,30,0.00,,BKN042,0.00,VWS V14.01,2013-05-01 20:37:00,
2013-05-01 16:42:00,78.6,46.3,30.27,NW,315,2.7,4.9,32,0.00,,BKN042,0.00,VWS V14.01,2013-05-01 20:42:00,
2013-05-01 16:47:00,78.4,45.3,30.30,NW,315,3.4,5.8,31,0.00,,BKN042,0.00,VWS V14.01,2013-05-01 20:47:00,
2013-05-01 16:52:00,77.7,44.7,30.30,NE,45,4.0,4.7,31,0.00,,BKN042,0.00,VWS V14.01,2013-05-01 20:52:00,
2013-05-01 16:57:00,77.2,44.2,30.30,SE,135,7.2,7.2,31,0.00,,BKN042,0.00,VWS V14.01,2013-05-01 20:57:00,
2013-05-01 17:02:00,78.3,45.2,30.24,WNW,292,2.9,3.6,31,0.00,,BKN042,0.00,VWS V14.01,2013-05-01 21:02:00,
2013-05-01 17:07:00,76.1,43.3,30.24,NW,315,5.8,7.8,31,0.00,,BKN042,0.00,VWS V14.01,2013-05-01 21:07:00,
2013-05-01 17:12:00,75.4,43.5,30.24,NW,315,2.9,2.9,32,0.00,,BKN042,0.00,VWS V14.01,2013-05-01 21:12:00,
2013-05-01 17:17:00,74.8,43.8,30.24,ESE,112,2.0,2.0,33,0.00,,BKN042,0.00,VWS V14.01,2013-05-01 21:17:00,
2013-05-01 17:22:00,75.6,44.5,30.24,WSW,248,2.0,2.5,33,0.00,,BKN042,0.00,VWS V14.01,2013-05-01 21:22:00,
2013-05-01 17:27:00,74.1,43.2,30.24,SW,225,2.5,2.5,33,0.00,,BKN042,0.00,VWS V14.01,2013-05-01 21:27:00,
2013-05-01 17:32:00,74.5,44.3,30.27,South,180,2.0,2.5,34,0.00,,BKN042,0.00,VWS V14.01,2013-05-01 21:32:00,
2013-05-01 17:37:00,75.9,45.6,30.27,NNE,22,2.0,3.4,34,0.00,,BKN042,0.00,VWS V14.01,2013-05-01 21:37:00,
2013-05-01 17:42:00,76.1,44.1,30.27,East,90,3.4,3.8,32,0.00,,BKN042,0.00,VWS V14.01,2013-05-01 21:42:00,
2013-05-01 17:47:00,74.8,43.0,30.27,NNE,22,2.5,2.5,32,0.00,,BKN042,0.00,VWS V14.01,2013-05-01 21:47:00,
2013-05-01 17:52:00,77.4,44.4,30.27,NW,315,1.1,2.2,31,0.00,,BKN042,0.00,VWS V14.01,2013-05-01 21:52:00,
2013-05-01 17:57:00,76.8,44.8,30.27,SW,225,3.1,4.0,32,0.00,,BKN042,0.00,VWS V14.01,2013-05-01 21:57:00,
2013-05-01 18:02:00,76.8,43.9,30.27,South,180,2.7,2.7,31,0.00,,FEW047,0.00,VWS V14.01,2013-05-01 22:02:00,
2013-05-01 18:07:00,76.1,44.1,30.27,North,0,2.7,2.7,32,0.00,,FEW047,0.00,VWS V14.01,2013-05-01 22:07:00,
2013-05-01 18:12:00,75.6,43.7,30.27,NE,45,1.3,3.1,32,0.00,,FEW047,0.00,VWS V14.01,2013-05-01 22:12:00,
2013-05-01 18:17:00,75.4,43.5,30.24,South,180,4.0,4.0,32,0.00,,FEW047,0.00,VWS V14.01,2013-05-01 22:17:00,
2013-05-01 18:22:00,74.7,43.7,30.24,South,180,2.5,4.0,33,0.00,,FEW047,0.00,VWS V14.01,2013-05-01 22:22:00,
2013-05-01 18:27:00,74.1,42.4,30.24,NW,315,3.6,4.7,32,0.00,,FEW047,0.00,VWS V14.01,2013-05-01 22:27:00,
2013-05-01 18:32:00,72.5,41.8,30.27,SE,135,6.5,6.5,33,0.00,,FEW047,0.00,VWS V14.01,2013-05-01 22:32:00,
2013-05-01 18:37:00,71.6,41.8,30.27,SSW,202,2.9,2.9,34,0.00,,FEW047,0.00,VWS V14.01,2013-05-01 22:37:00,
2013-05-01 18:42:00,70.9,42.6,30.27,SW,225,2.5,2.5,36,0.00,,FEW047,0.00,VWS V14.01,2013-05-01 22:42:00,
2013-05-01 18:47:00,70.5,43.0,30.27,South,180,5.6,5.6,37,0.00,,FEW047,0.00,VWS V14.01,2013-05-01 22:47:00,
2013-05-01 18:52:00,70.2,42.7,30.27,SW,225,1.6,1.6,37,0.00,,FEW047,0.00,VWS V14.01,2013-05-01 22:52:00,
2013-05-01 18:57:00,69.8,42.4,30.27,South,180,2.9,2.9,37,0.00,,FEW047,0.00,VWS V14.01,2013-05-01 22:57:00,
2013-05-01 19:02:00,69.4,43.4,30.27,SW,225,4.0,4.0,39,0.00,,FEW049,0.00,VWS V14.01,2013-05-01 23:02:00,
2013-05-01 19:07:00,68.7,43.5,30.27,SE,135,3.1,3.1,40,0.00,,FEW049,0.00,VWS V14.01,2013-05-01 23:07:00,
2013-05-01 19:12:00,68.7,43.5,30.27,South,180,0.0,1.6,40,0.00,,FEW049,0.00,VWS V14.01,2013-05-01 23:12:00,
2013-05-01 19:17:00,68.5,44.6,30.24,SE,135,2.0,2.0,42,0.00,,FEW049,0.00,VWS V14.01,2013-05-01 23:17:00,
2013-05-01 19:22:00,68.7,44.7,30.24,SE,135,2.7,4.9,42,0.00,,FEW049,0.00,VWS V14.01,2013-05-01 23:22:00,
2013-05-01 19:27:00,68.5,42.6,30.24,SSE,158,4.9,4.9,39,0.00,,FEW049,0.00,VWS V14.01,2013-05-01 23:27:00,
2013-05-01 19:32:00,68.4,42.5,30.27,SW,225,1.3,1.3,39,0.00,,FEW049,0.00,VWS V14.01,2013-05-01 23:32:00,
2013-05-01 19:37:00,68.2,43.0,30.27,West,270,2.5,2.5,40,0.00,,FEW049,0.00,VWS V14.01,2013-05-01 23:37:00,
2013-05-01 19:42:00,67.8,42.6,30.27,SSW,202,3.4,3.4,40,0.00,,FEW049,0.00,VWS V14.01,2013-05-01 23:42:00,
2013-05-01 19:47:00,67.6,43.1,30.27,South,180,1.6,1.6,41,0.00,,FEW049,0.00,VWS V14.01,2013-05-01 23:47:00,
2013-05-01 19:52:00,67.5,43.6,30.27,SE,135,4.0,4.0,42,0.00,,FEW049,0.00,VWS V14.01,2013-05-01 23:52:00,
2013-05-01 19:57:00,67.3,42.8,30.27,ESE,112,3.6,4.9,41,0.00,,FEW049,0.00,VWS V14.01,2013-05-01 23:57:00,
2013-05-01 20:02:00,67.1,43.3,30.27,WSW,248,1.6,1.6,42,0.00,,OVC049,0.00,VWS V14.01,2013-05-02 00:02:00,
2013-05-01 20:07:00,66.7,43.5,30.27,SSW,202,2.5,2.5,43,0.00,,OVC049,0.00,VWS V14.01,2013-05-02 00:07:00,
2013-05-01 20:12:00,66.4,43.2,30.27,South,180,2.9,2.9,43,0.00,,OVC049,0.00,VWS V14.01,2013-05-02 00:12:00,
2013-05-01 20:17:00,66.4,43.8,30.30,SE,135,4.5,6.0,44,0.00,,OVC049,0.00,VWS V14.01,2013-05-02 00:17:00,
2013-05-01 20:22:00,66.0,43.5,30.30,South,180,2.5,2.5,44,0.00,,OVC049,0.00,VWS V14.01,2013-05-02 00:22:00,
2013-05-01 20:27:00,66.0,44.1,30.30,South,180,2.0,2.0,45,0.00,,OVC049,0.00,VWS V14.01,2013-05-02 00:27:00,
2013-05-01 20:32:00,65.8,43.3,30.30,ESE,112,0.0,2.0,44,0.00,,OVC049,0.00,VWS V14.01,2013-05-02 00:32:00,
2013-05-01 20:37:00,65.5,43.6,30.30,NNW,338,2.7,2.9,45,0.00,,OVC049,0.00,VWS V14.01,2013-05-02 00:37:00,
2013-05-01 20:42:00,65.5,43.6,30.30,SW,225,2.0,2.7,45,0.00,,OVC049,0.00,VWS V14.01,2013-05-02 00:42:00,
2013-05-01 20:47:00,65.5,44.2,30.30,South,180,4.0,8.7,46,0.00,,OVC049,0.00,VWS V14.01,2013-05-02 00:47:00,
2013-05-01 20:52:00,65.1,44.4,30.30,NNE,22,1.3,4.9,47,0.00,,OVC049,0.00,VWS V14.01,2013-05-02 00:52:00,
2013-05-01 20:57:00,64.8,44.6,30.30,South,180,3.1,3.1,48,0.00,,OVC049,0.00,VWS V14.01,2013-05-02 00:57:00,
2013-05-01 21:02:00,64.8,44.1,30.30,NNW,338,0.0,0.0,47,0.00,,OVC049,0.00,VWS V14.01,2013-05-02 01:02:00,
2013-05-01 21:07:00,64.6,43.9,30.30,NW,315,0.0,2.0,47,0.00,,OVC049,0.00,VWS V14.01,2013-05-02 01:07:00,
2013-05-01 21:12:00,64.4,43.2,30.30,NNW,338,0.0,0.9,46,0.00,,OVC049,0.00,VWS V14.01,2013-05-02 01:12:00,
2013-05-01 21:17:00,64.2,43.6,30.33,NNW,338,1.1,1.1,47,0.00,,OVC049,0.00,VWS V14.01,2013-05-02 01:17:00,
2013-05-01 21:22:00,64.0,44.0,30.33,West,270,1.6,3.8,48,0.00,,OVC049,0.00,VWS V14.01,2013-05-02 01:22:00,
2013-05-01 21:27:00,64.6,43.9,30.33,WSW,248,2.7,10.3,47,0.00,,OVC049,0.00,VWS V14.01,2013-05-02 01:27:00,
2013-05-01 21:32:00,64.6,43.9,30.30,SSE,158,2.0,4.3,47,0.00,,OVC049,0.00,VWS V14.01,2013-05-02 01:32:00,
2013-05-01 21:37:00,64.4,44.3,30.30,South,180,2.0,3.6,48,0.00,,OVC049,0.00,VWS V14.01,2013-05-02 01:37:00,
2013-05-01 21:42:00,64.4,44.3,30.30,SSW,202,2.9,5.8,48,0.00,,OVC049,0.00,VWS V14.01,2013-05-02 01:42:00,
2013-05-01 21:47:00,64.2,44.1,30.33,ENE,68,4.3,7.4,48,0.00,,OVC049,0.00,VWS V14.01,2013-05-02 01:47:00,
2013-05-01 21:52:00,64.2,44.1,30.33,NW,315,1.6,6.3,48,0.00,,OVC049,0.00,VWS V14.01,2013-05-02 01:52:00,
2013-05-01 21:57:00,64.2,44.1,30.33,South,180,3.8,6.9,48,0.00,,OVC049,0.00,VWS V14.01,2013-05-02 01:57:00,
2013-05-01 22:02:00,63.9,44.3,30.33,SW,225,1.3,6.0,49,0.00,,OVC049,0.00,VWS V14.01,2013-05-02 02:02:00,
2013-05-01 22:07:00,63.9,43.8,30.33,WSW,248,2.5,6.0,48,0.00,,OVC049,0.00,VWS V14.01,2013-05-02 02:07:00,
2013-05-01 22:12:00,63.5,44.0,30.33,WSW,248,3.1,5.8,49,0.00,,OVC049,0.00,VWS V14.01,2013-05-02 02:12:00,
2013-05-01 22:17:00,63.3,43.8,30.30,WSW,248,3.4,3.6,49,0.00,,OVC049,0.00,VWS V14.01,2013-05-02 02:17:00,
2013-05-01 22:22:00,63.3,43.3,30.30,South,180,2.0,7.6,48,0.00,,OVC049,0.00,VWS V14.01,2013-05-02 02:22:00,
2013-05-01 22:27:00,63.1,42.0,30.30,North,0,3.6,7.8,46,0.00,,OVC049,0.00,VWS V14.01,2013-05-02 02:27:00,
2013-05-01 22:32:00,63.1,41.5,30.33,East,90,3.8,10.7,45,0.00,,OVC049,0.00,VWS V14.01,2013-05-02 02:32:00,
2013-05-01 22:37:00,63.1,40.9,30.33,South,180,6.9,10.7,44,0.00,,OVC049,0.00,VWS V14.01,2013-05-02 02:37:00,
2013-05-01 22:42:00,63.1,39.7,30.33,South,180,4.9,13.9,42,0.00,,OVC049,0.00,VWS V14.01,2013-05-02 02:42:00,
2013-05-01 22:47:00,62.8,40.0,30.30,NW,315,1.6,7.6,43,0.00,,OVC049,0.00,VWS V14.01,2013-05-02 02:47:00,
2013-05-01 22:52:00,62.8,39.4,30.30,ESE,112,10.1,10.1,42,0.00,,OVC049,0.00,VWS V14.01,2013-05-02 02:52:00,
2013-05-01 22:57:00,62.8,39.4,30.30,West,270,4.0,10.1,42,0.00,,OVC049,0.00,VWS V14.01,2013-05-02 02:57:00,
2013-05-01 23:02:00,62.6,38.6,30.33,SSE,158,1.6,9.6,41,0.00,,OVC049,0.00,VWS V14.01,2013-05-02 03:02:00,
2013-05-01 23:03:00,60.6,40.3,30.33,SSW,202,3.1,3.4,47,0.00,,OVC047,0.00,VWS V14.01,2013-05-02 03:03:00,
2013-05-01 23:04:00,60.6,40.8,30.33,South,180,2.7,3.4,48,0.00,,OVC047,0.00,VWS V14.01,2013-05-02 03:04:00,
2013-05-01 23:05:00,60.6,41.4,30.33,South,180,5.6,6.9,49,0.00,,OVC047,0.00,VWS V14.01,2013-05-02 03:05:00,
2013-05-01 23:06:00,60.6,40.8,30.33,West,270,1.3,5.6,48,0.00,,OVC047,0.00,VWS V14.01,2013-05-02 03:06:00,
2013-05-01 23:07:00,62.6,38.6,30.33,NNE,22,8.7,8.7,41,0.00,,OVC049,0.00,VWS V14.01,2013-05-02 03:07:00,
2013-05-01 23:12:00,62.4,39.0,30.33,SSE,158,2.7,8.1,42,0.00,,OVC049,0.00,VWS V14.01,2013-05-02 03:12:00,
2013-05-01 23:17:00,62.2,39.5,30.33,SSE,158,4.9,7.8,43,0.00,,OVC049,0.00,VWS V14.01,2013-05-02 03:17:00,
2013-05-01 23:22:00,62.1,39.9,30.33,East,90,5.8,9.2,44,0.00,,OVC049,0.00,VWS V14.01,2013-05-02 03:22:00,
2013-05-01 23:27:00,62.1,39.9,30.33,SE,135,3.6,9.6,44,0.00,,OVC049,0.00,VWS V14.01,2013-05-02 03:27:00,
2013-05-01 23:32:00,61.9,39.8,30.33,South,180,5.6,8.5,44,0.00,,OVC049,0.00,VWS V14.01,2013-05-02 03:32:00,
2013-05-01 23:37:00,61.7,40.7,30.33,South,180,3.4,12.3,46,0.00,,OVC049,0.00,VWS V14.01,2013-05-02 03:37:00,
2013-05-01 23:42:00,61.3,40.4,30.33,SW,225,2.7,15.2,46,0.00,,OVC049,0.00,VWS V14.01,2013-05-02 03:42:00,
2013-05-01 23:47:00,61.2,40.2,30.30,West,270,2.9,6.5,46,0.00,,OVC049,0.00,VWS V14.01,2013-05-02 03:47:00,
2013-05-01 23:52:00,61.0,40.6,30.30,SE,135,4.9,6.5,47,0.00,,OVC049,0.00,VWS V14.01,2013-05-02 03:52:00,
2013-05-01 23:57:00,60.8,40.5,30.30,SSW,202,1.3,3.4,47,0.00,,OVC049,0.00,VWS V14.01,2013-05-02 03:57:00,